createdAt,value
2019-01-12T00:00:49.269Z,8.10
2019-01-12T00:01:53.243Z,8.09
2019-01-12T00:02:57.083Z,8.12
2019-01-12T00:04:01.307Z,8.12
2019-01-12T00:05:05.938Z,8.13
2019-01-12T00:06:28.982Z,8.14
2019-01-12T00:07:52.024Z,8.14
2019-01-12T00:09:15.047Z,8.15
2019-01-12T00:10:38.159Z,8.15
2019-01-12T00:12:01.181Z,8.14
2019-01-12T00:13:05.494Z,8.11
2019-01-12T00:14:28.522Z,8.15
2019-01-12T00:15:51.542Z,8.13
2019-01-12T00:17:07.379Z,8.10
2019-01-12T00:18:30.283Z,8.08
2019-01-12T00:19:53.566Z,8.08
2019-01-12T00:21:16.951Z,8.07
2019-01-12T00:22:40.183Z,8.06
2019-01-12T00:24:03.415Z,8.08
2019-01-12T00:25:07.421Z,8.08
2019-01-12T00:26:12.090Z,8.09
2019-01-12T00:27:16.283Z,8.09
2019-01-12T00:28:39.327Z,8.12
2019-01-12T00:30:02.618Z,8.13
2019-01-12T00:31:25.639Z,8.15
2019-01-12T00:32:48.850Z,8.18
2019-01-12T00:34:12.249Z,8.19
2019-01-12T00:35:35.136Z,8.21
2019-01-12T00:36:58.021Z,8.21
2019-01-12T00:38:21.181Z,8.22
2019-01-12T00:40:48.049Z,8.21
2019-01-12T00:41:52.246Z,8.22
2019-01-12T00:42:56.469Z,8.21
2019-01-12T00:44:19.502Z,8.21
2019-01-12T00:45:42.522Z,8.21
2019-01-12T00:50:10.779Z,8.17
2019-01-12T00:51:33.743Z,8.13
2019-01-12T00:52:57.009Z,8.12
2019-01-12T00:56:41.015Z,8.12
2019-01-12T00:58:03.978Z,8.12
2019-01-12T00:59:27.025Z,8.14
2019-01-12T01:01:10.503Z,8.12
2019-01-12T01:02:33.839Z,8.12
2019-01-12T01:05:20.115Z,8.08
2019-01-12T01:06:43.134Z,8.07
2019-01-12T01:08:06.155Z,8.04
2019-01-12T01:09:29.790Z,8.07
2019-01-12T01:10:52.883Z,8.07
2019-01-12T01:11:56.825Z,8.10
2019-01-12T01:13:20.193Z,8.10
2019-01-12T01:14:43.230Z,8.12
2019-01-12T01:16:06.252Z,8.14
2019-01-12T01:17:29.290Z,8.16
2019-01-12T01:20:15.532Z,8.17
2019-01-12T01:21:38.443Z,8.18
2019-01-12T01:24:46.027Z,8.20
2019-01-12T01:25:50.668Z,8.21
2019-01-12T01:27:13.943Z,8.23
2019-01-12T01:28:36.844Z,8.22
2019-01-12T01:29:59.886Z,8.22
2019-01-12T01:31:23.095Z,8.22
2019-01-12T01:34:09.314Z,8.19
2019-01-12T01:37:02.522Z,8.17
2019-01-12T01:38:25.483Z,8.19
2019-01-12T01:39:49.163Z,8.18
2019-01-12T01:41:12.194Z,8.18
2019-01-12T01:42:35.663Z,8.18
2019-01-12T01:43:59.018Z,8.18
2019-01-12T01:45:03.328Z,8.15
2019-01-12T01:46:26.614Z,8.15
2019-01-12T01:47:50.247Z,8.15
2019-01-12T01:49:13.434Z,8.16
2019-01-12T01:52:19.936Z,8.14
2019-01-12T01:53:24.300Z,7.93
2019-01-12T01:54:28.526Z,8.13
2019-01-12T01:55:51.728Z,8.14
2019-01-12T01:57:14.871Z,8.15
2019-01-12T01:58:38.233Z,8.18
2019-01-12T02:00:01.898Z,8.17
2019-01-12T02:01:25.114Z,8.16
2019-01-12T02:02:29.241Z,8.16
2019-01-12T02:03:52.129Z,8.15
2019-01-12T02:04:55.965Z,8.16
2019-01-12T02:06:18.862Z,8.16
2019-01-12T02:07:22.694Z,8.17
2019-01-12T02:08:45.718Z,8.18
2019-01-12T02:11:31.706Z,8.19
2019-01-12T02:12:54.904Z,8.20
2019-01-12T02:14:17.788Z,8.19
2019-01-12T02:15:40.894Z,8.08
2019-01-12T02:17:03.806Z,8.21
2019-01-12T02:18:26.913Z,8.20
2019-01-12T02:19:50.181Z,8.21
2019-01-12T02:21:13.313Z,8.21
2019-01-12T02:22:36.386Z,8.22
2019-01-12T02:23:59.410Z,8.22
2019-01-12T02:25:03.316Z,8.23
2019-01-12T02:26:26.280Z,8.22
2019-01-12T02:27:49.650Z,8.24
2019-01-12T02:29:12.753Z,8.26
2019-01-12T02:32:44.831Z,8.29
2019-01-12T02:34:07.856Z,8.27
2019-01-12T02:35:30.877Z,8.29
2019-01-12T02:36:53.942Z,8.29
2019-01-12T02:38:16.840Z,8.29
2019-01-12T02:39:39.857Z,8.28
2019-01-12T02:41:02.881Z,8.26
2019-01-12T02:42:25.776Z,8.28
2019-01-12T02:43:48.814Z,8.26
2019-01-12T02:45:11.706Z,8.25
2019-01-12T02:46:34.986Z,8.24
2019-01-12T02:47:39.102Z,8.24
2019-01-12T02:49:02.005Z,8.26
2019-01-12T02:50:46.122Z,8.25
2019-01-12T02:52:09.278Z,8.24
2019-01-12T02:55:14.309Z,8.20
2019-01-12T02:56:37.277Z,8.19
2019-01-12T02:58:20.758Z,8.18
2019-01-12T02:59:43.777Z,8.17
2019-01-12T03:00:48.006Z,8.13
2019-01-12T03:01:51.906Z,8.10
2019-01-12T03:02:55.903Z,8.09
2019-01-12T03:03:59.882Z,8.10
2019-01-12T03:05:23.154Z,8.11
2019-01-12T03:06:27.138Z,8.12
2019-01-12T03:07:50.038Z,8.12
2019-01-12T03:12:58.474Z,8.12
2019-01-12T03:14:02.809Z,8.10
2019-01-12T03:15:08.654Z,8.08
2019-01-12T03:16:12.558Z,8.08
2019-01-12T03:17:16.816Z,8.08
2019-01-12T03:18:20.773Z,8.08
2019-01-12T03:19:24.573Z,8.10
2019-01-12T03:20:28.983Z,8.12
2019-01-12T03:21:33.133Z,8.14
2019-01-12T03:22:37.048Z,8.13
2019-01-12T03:23:41.216Z,8.13
2019-01-12T03:24:45.125Z,8.12
2019-01-12T03:25:49.292Z,8.13
2019-01-12T03:26:53.190Z,8.14
2019-01-12T03:27:57.366Z,8.14
2019-01-12T03:29:01.455Z,8.16
2019-01-12T03:30:08.804Z,8.16
2019-01-12T03:31:12.956Z,8.17
2019-01-12T03:32:17.103Z,8.19
2019-01-12T03:33:21.280Z,8.16
2019-01-12T03:34:25.195Z,8.16
2019-01-12T03:35:29.102Z,8.19
2019-01-12T03:36:33.043Z,8.19
2019-01-12T03:37:37.259Z,8.18
2019-01-12T03:38:41.183Z,8.17
2019-01-12T03:39:45.257Z,8.16
2019-01-12T03:40:49.417Z,8.15
2019-01-12T03:41:53.822Z,8.14
2019-01-12T03:42:57.989Z,8.16
2019-01-12T03:44:02.149Z,8.19
2019-01-12T03:45:07.673Z,8.20
2019-01-12T03:46:11.911Z,8.21
2019-01-12T03:47:15.878Z,8.17
2019-01-12T03:48:19.872Z,8.16
2019-01-12T03:49:23.857Z,8.16
2019-01-12T03:50:27.692Z,8.13
2019-01-12T03:51:31.919Z,8.10
2019-01-12T03:52:35.902Z,8.08
2019-01-12T03:53:40.002Z,8.06
2019-01-12T03:54:44.149Z,8.04
2019-01-12T03:55:48.129Z,8.04
2019-01-12T03:56:52.434Z,8.03
2019-01-12T03:57:56.593Z,8.03
2019-01-12T03:59:00.760Z,8.08
2019-01-12T04:00:07.951Z,8.09
2019-01-12T04:01:12.175Z,8.05
2019-01-12T04:02:16.327Z,8.07
2019-01-12T04:03:20.315Z,8.08
2019-01-12T04:04:24.305Z,8.07
2019-01-12T04:05:28.285Z,8.07
2019-01-12T04:06:32.194Z,8.00
2019-01-12T04:07:36.178Z,7.92
2019-01-12T04:08:40.026Z,7.89
2019-01-12T04:09:44.010Z,7.85
2019-01-12T04:10:47.919Z,7.83
2019-01-12T04:11:51.899Z,7.81
2019-01-12T04:12:55.810Z,7.81
2019-01-12T04:13:59.987Z,7.81
2019-01-12T04:15:04.175Z,7.81
2019-01-12T04:16:08.088Z,7.82
2019-01-12T04:17:12.014Z,7.82
2019-01-12T04:18:16.098Z,7.83
2019-01-12T04:19:20.262Z,7.86
2019-01-12T04:20:24.422Z,7.87
2019-01-12T04:21:28.268Z,7.88
2019-01-12T04:22:32.098Z,7.93
2019-01-12T04:23:36.452Z,7.95
2019-01-12T04:24:40.301Z,7.90
2019-01-12T04:25:44.225Z,7.96
2019-01-12T04:26:48.466Z,7.94
2019-01-12T04:27:52.370Z,7.91
2019-01-12T04:28:56.862Z,7.87
2019-01-12T04:30:00.907Z,7.87
2019-01-12T04:31:05.141Z,7.87
2019-01-12T04:32:09.053Z,7.87
2019-01-12T04:33:13.039Z,7.87
2019-01-12T04:34:17.202Z,7.88
2019-01-12T04:35:21.353Z,7.89
2019-01-12T04:36:25.334Z,7.92
2019-01-12T04:37:29.415Z,7.93
2019-01-12T04:38:33.240Z,7.96
2019-01-12T04:39:37.162Z,7.97
2019-01-12T04:40:41.561Z,8.00
2019-01-12T04:41:45.802Z,8.02
2019-01-12T04:42:50.035Z,8.02
2019-01-12T04:43:54.117Z,8.02
2019-01-12T04:44:58.221Z,8.03
2019-01-12T04:46:02.374Z,8.07
2019-01-12T04:47:06.283Z,8.06
2019-01-12T04:48:10.448Z,8.05
2019-01-12T04:49:14.689Z,8.08
2019-01-12T04:50:18.958Z,8.09
2019-01-12T04:51:23.109Z,8.09
2019-01-12T04:52:27.261Z,8.10
2019-01-12T04:53:31.174Z,8.10
2019-01-12T04:54:35.261Z,8.10
2019-01-12T04:55:41.640Z,8.12
2019-01-12T04:56:44.897Z,8.13
2019-01-12T04:57:49.059Z,8.15
2019-01-12T04:58:53.205Z,8.14
2019-01-12T04:59:57.377Z,8.15
2019-01-12T05:01:01.353Z,8.20
2019-01-12T05:02:05.333Z,8.18
2019-01-12T05:03:09.242Z,8.15
2019-01-12T05:04:13.149Z,8.14
2019-01-12T05:05:17.761Z,8.16
2019-01-12T05:06:21.923Z,8.15
2019-01-12T05:07:25.834Z,8.15
2019-01-12T05:08:29.909Z,8.17
2019-01-12T05:09:33.919Z,8.18
2019-01-12T05:10:38.081Z,8.17
2019-01-12T05:11:42.449Z,8.20
2019-01-12T05:12:46.682Z,8.17
2019-01-12T05:13:50.842Z,8.18
2019-01-12T05:14:54.970Z,8.19
2019-01-12T05:15:58.954Z,8.18
2019-01-12T05:17:03.131Z,8.16
2019-01-12T05:18:07.280Z,8.13
2019-01-12T05:19:11.186Z,8.14
2019-01-12T05:20:22.258Z,8.13
2019-01-12T05:21:26.672Z,8.13
2019-01-12T05:22:30.586Z,8.14
2019-01-12T05:23:34.818Z,8.15
2019-01-12T05:24:38.726Z,8.16
2019-01-12T05:25:48.837Z,8.16
2019-01-12T05:26:48.539Z,8.18
2019-01-12T05:27:52.690Z,8.18
2019-01-12T05:28:56.517Z,8.18
2019-01-12T05:30:00.622Z,8.17
2019-01-12T05:31:04.641Z,8.17
2019-01-12T05:32:08.548Z,8.16
2019-01-12T05:33:12.453Z,8.16
2019-01-12T05:34:16.542Z,8.16
2019-01-12T05:35:20.806Z,8.21
2019-01-12T05:36:24.711Z,8.12
2019-01-12T05:37:28.941Z,8.10
2019-01-12T05:38:33.277Z,8.06
2019-01-12T05:39:37.366Z,8.02
2019-01-12T05:40:41.361Z,8.02
2019-01-12T05:41:45.442Z,8.06
2019-01-12T05:42:49.530Z,8.04
2019-01-12T05:43:53.358Z,8.02
2019-01-12T05:44:57.189Z,8.01
2019-01-12T05:46:01.605Z,8.00
2019-01-12T05:47:05.587Z,8.03
2019-01-12T05:48:09.567Z,8.03
2019-01-12T05:49:13.654Z,8.07
2019-01-12T05:50:17.881Z,8.07
2019-01-12T05:51:22.049Z,8.07
2019-01-12T05:52:26.034Z,8.07
2019-01-12T05:53:29.866Z,8.08
2019-01-12T05:54:33.946Z,8.08
2019-01-12T05:55:38.438Z,8.10
2019-01-12T05:56:42.630Z,8.10
2019-01-12T05:57:46.872Z,8.12
2019-01-12T05:58:51.013Z,8.11
2019-01-12T05:59:54.849Z,8.10
2019-01-12T06:00:58.835Z,8.10
2019-01-12T06:02:03.011Z,8.09
2019-01-12T06:03:06.913Z,8.11
2019-01-12T06:04:11.146Z,8.10
2019-01-12T06:05:15.127Z,8.15
2019-01-12T06:06:19.369Z,8.12
2019-01-12T06:07:23.779Z,8.12
2019-01-12T06:08:27.866Z,8.15
2019-01-12T06:09:32.034Z,8.12
2019-01-12T06:10:36.269Z,8.12
2019-01-12T06:11:41.093Z,8.13
2019-01-12T06:12:45.078Z,8.12
2019-01-12T06:13:49.162Z,8.15
2019-01-12T06:14:53.241Z,8.15
2019-01-12T06:15:57.218Z,8.15
2019-01-12T06:17:01.163Z,8.15
2019-01-12T06:18:05.073Z,8.15
2019-01-12T06:19:08.983Z,8.15
2019-01-12T06:20:13.899Z,8.19
2019-01-12T06:21:17.801Z,8.19
2019-01-12T06:22:21.797Z,8.21
2019-01-12T06:23:26.030Z,8.17
2019-01-12T06:24:30.109Z,8.18
2019-01-12T06:25:34.592Z,8.21
2019-01-12T06:26:38.761Z,8.16
2019-01-12T06:27:42.669Z,8.19
2019-01-12T06:28:46.574Z,8.15
2019-01-12T06:29:50.721Z,8.12
2019-01-12T06:30:54.956Z,8.13
2019-01-12T06:31:58.959Z,8.13
2019-01-12T06:33:03.194Z,8.13
2019-01-12T06:34:07.420Z,8.15
2019-01-12T06:35:11.402Z,8.17
2019-01-12T06:36:15.627Z,8.15
2019-01-12T06:37:19.798Z,8.16
2019-01-12T06:38:23.976Z,8.16
2019-01-12T06:39:27.806Z,8.18
2019-01-12T06:40:31.957Z,8.17
2019-01-12T06:41:35.948Z,8.16
2019-01-12T06:42:40.194Z,8.18
2019-01-12T06:43:44.185Z,8.19
2019-01-12T06:44:48.097Z,8.20
2019-01-12T06:45:51.935Z,8.22
2019-01-12T06:46:56.290Z,8.24
2019-01-12T06:48:00.708Z,8.21
2019-01-12T06:49:05.342Z,8.20
2019-01-12T06:50:10.386Z,8.20
2019-01-12T06:51:14.538Z,8.20
2019-01-12T06:52:18.799Z,8.22
2019-01-12T06:53:23.133Z,8.21
2019-01-12T06:54:26.966Z,8.21
2019-01-12T06:55:30.878Z,8.22
2019-01-12T06:56:35.285Z,8.26
2019-01-12T06:57:39.281Z,8.29
2019-01-12T06:58:43.638Z,8.29
2019-01-12T06:59:48.047Z,8.24
2019-01-12T07:00:52.551Z,8.26
2019-01-12T07:01:56.694Z,8.23
2019-01-12T07:03:00.857Z,8.28
2019-01-12T07:04:05.081Z,8.20
2019-01-12T07:05:09.074Z,8.17
2019-01-12T07:06:13.303Z,8.13
2019-01-12T07:07:17.222Z,8.13
2019-01-12T07:08:21.329Z,8.14
2019-01-12T07:09:25.316Z,8.15
2019-01-12T07:10:29.466Z,8.16
2019-01-12T07:11:33.379Z,8.17
2019-01-12T07:12:37.307Z,8.17
2019-01-12T07:13:41.390Z,8.18
2019-01-12T07:14:45.290Z,8.19
2019-01-12T07:15:49.523Z,8.20
2019-01-12T07:16:53.378Z,8.20
2019-01-12T07:17:57.299Z,8.19
2019-01-12T07:19:01.213Z,8.04
2019-01-12T07:20:06.794Z,8.20
2019-01-12T07:21:10.963Z,8.20
2019-01-12T07:22:14.977Z,8.23
2019-01-12T07:23:18.815Z,8.22
2019-01-12T07:24:23.041Z,8.24
2019-01-12T07:25:26.873Z,8.23
2019-01-12T07:26:30.705Z,8.24
2019-01-12T07:27:34.686Z,8.25
2019-01-12T07:28:38.868Z,8.24
2019-01-12T07:29:42.949Z,8.27
2019-01-12T07:30:47.119Z,8.27
2019-01-12T07:31:50.960Z,8.29
2019-01-12T07:32:55.385Z,8.32
2019-01-12T07:33:59.469Z,8.30
2019-01-12T07:35:03.754Z,8.28
2019-01-12T07:36:07.848Z,8.33
2019-01-12T07:37:11.997Z,8.34
2019-01-12T07:38:16.178Z,8.33
2019-01-12T07:39:20.158Z,8.30
2019-01-12T07:40:24.142Z,8.30
2019-01-12T07:41:28.307Z,8.31
2019-01-12T07:42:32.226Z,8.31
2019-01-12T07:43:36.230Z,8.33
2019-01-12T07:44:40.323Z,8.34
2019-01-12T07:45:44.556Z,8.34
2019-01-12T07:46:48.970Z,8.37
2019-01-12T07:47:53.068Z,8.39
2019-01-12T07:48:57.290Z,8.42
2019-01-12T07:50:01.276Z,8.42
2019-01-12T07:51:05.265Z,8.44
2019-01-12T07:52:09.751Z,8.46
2019-01-12T07:53:13.864Z,8.45
2019-01-12T07:54:17.774Z,8.46
2019-01-12T07:55:21.696Z,8.48
2019-01-12T07:56:25.785Z,8.49
2019-01-12T07:57:29.699Z,8.51
2019-01-12T07:58:33.707Z,8.53
2019-01-12T07:59:37.803Z,8.53
2019-01-12T08:00:42.048Z,8.54
2019-01-12T08:01:45.967Z,8.54
2019-01-12T08:02:50.404Z,8.56
2019-01-12T08:03:54.403Z,8.55
2019-01-12T08:04:58.394Z,8.56
2019-01-12T08:06:02.815Z,8.59
2019-01-12T08:07:06.732Z,8.57
2019-01-12T08:08:11.214Z,8.58
2019-01-12T08:09:15.459Z,8.61
2019-01-12T08:10:21.815Z,8.58
2019-01-12T08:11:25.737Z,8.59
2019-01-12T08:12:29.656Z,8.61
2019-01-12T08:13:33.643Z,8.61
2019-01-12T08:14:37.895Z,8.65
2019-01-12T08:15:42.127Z,8.64
2019-01-12T08:16:46.123Z,8.63
2019-01-12T08:17:50.129Z,8.64
2019-01-12T08:18:54.403Z,8.69
2019-01-12T08:19:58.561Z,8.67
2019-01-12T08:21:02.475Z,8.69
2019-01-12T08:22:06.470Z,8.67
2019-01-12T08:23:10.456Z,8.67
2019-01-12T08:24:14.631Z,8.68
2019-01-12T08:25:18.723Z,8.72
2019-01-12T08:26:22.875Z,8.70
2019-01-12T08:27:26.867Z,8.71
2019-01-12T08:28:30.858Z,8.72
2019-01-12T08:29:36.630Z,8.73
2019-01-12T08:30:40.550Z,8.76
2019-01-12T08:31:44.722Z,8.78
2019-01-12T08:32:48.637Z,8.77
2019-01-12T08:33:52.558Z,8.79
2019-01-12T08:34:56.740Z,8.79
2019-01-12T08:36:00.978Z,8.81
2019-01-12T08:37:04.957Z,8.85
2019-01-12T08:38:09.181Z,8.85
2019-01-12T08:39:13.175Z,8.94
2019-01-12T08:40:17.402Z,8.91
2019-01-12T08:41:21.315Z,8.88
2019-01-12T08:42:27.105Z,8.86
2019-01-12T08:43:31.106Z,8.91
2019-01-12T08:44:35.275Z,8.89
2019-01-12T08:45:39.198Z,8.87
2019-01-12T08:46:43.433Z,8.90
2019-01-12T08:47:47.347Z,8.88
2019-01-12T08:48:51.257Z,8.85
2019-01-12T08:49:55.437Z,8.87
2019-01-12T08:50:59.347Z,8.86
2019-01-12T08:52:03.347Z,8.87
2019-01-12T08:53:07.317Z,8.86
2019-01-12T08:54:11.552Z,8.87
2019-01-12T08:55:15.569Z,8.89
2019-01-12T08:56:19.478Z,8.91
2019-01-12T08:57:23.458Z,8.91
2019-01-12T08:58:27.366Z,8.93
2019-01-12T08:59:31.516Z,8.96
2019-01-12T09:00:35.746Z,8.97
2019-01-12T09:01:39.732Z,8.99
2019-01-12T09:02:44.210Z,9.03
2019-01-12T09:03:48.116Z,9.03
2019-01-12T09:04:52.198Z,9.03
2019-01-12T09:05:56.472Z,9.04
2019-01-12T09:07:00.425Z,9.07
2019-01-12T09:08:04.511Z,9.05
2019-01-12T09:09:09.074Z,9.06
2019-01-12T09:10:19.683Z,9.09
2019-01-12T09:11:24.036Z,9.09
2019-01-12T09:12:27.940Z,9.10
2019-01-12T09:13:31.851Z,9.13
2019-01-12T09:14:35.942Z,9.16
2019-01-12T09:15:39.867Z,9.18
2019-01-12T09:16:43.698Z,9.22
2019-01-12T09:17:47.870Z,9.23
2019-01-12T09:18:51.854Z,9.24
2019-01-12T09:19:55.691Z,9.24
2019-01-12T09:20:59.686Z,9.24
2019-01-12T09:22:04.169Z,9.24
2019-01-12T09:23:08.159Z,9.25
2019-01-12T09:24:12.139Z,9.27
2019-01-12T09:25:16.265Z,9.30
2019-01-12T09:26:20.363Z,9.32
2019-01-12T09:27:24.451Z,9.36
2019-01-12T09:28:28.357Z,9.34
2019-01-12T09:29:32.269Z,9.33
2019-01-12T09:30:36.250Z,9.34
2019-01-12T09:31:40.248Z,9.34
2019-01-12T09:32:44.405Z,9.36
2019-01-12T09:33:48.324Z,9.37
2019-01-12T09:34:52.157Z,9.38
2019-01-12T09:35:56.139Z,9.38
2019-01-12T09:37:00.497Z,9.40
2019-01-12T09:38:04.487Z,9.39
2019-01-12T09:39:09.506Z,9.40
2019-01-12T09:40:15.442Z,9.43
2019-01-12T09:41:19.681Z,9.47
2019-01-12T09:42:24.025Z,9.45
2019-01-12T09:43:27.998Z,9.46
2019-01-12T09:44:31.983Z,9.44
2019-01-12T09:45:35.893Z,9.43
2019-01-12T09:46:39.819Z,9.43
2019-01-12T09:47:43.802Z,9.45
2019-01-12T09:48:47.718Z,9.29
2019-01-12T09:49:51.640Z,9.41
2019-01-12T09:50:55.618Z,9.41
2019-01-12T09:51:59.861Z,9.41
2019-01-12T09:53:03.693Z,9.45
2019-01-12T09:54:07.926Z,9.46
2019-01-12T09:55:12.338Z,9.50
2019-01-12T09:56:16.567Z,9.39
2019-01-12T09:57:20.563Z,9.52
2019-01-12T09:58:24.786Z,9.50
2019-01-12T09:59:28.873Z,9.51
2019-01-12T10:00:32.783Z,9.52
2019-01-12T10:01:36.932Z,9.52
2019-01-12T10:02:40.863Z,9.55
2019-01-12T10:03:45.193Z,9.57
2019-01-12T10:04:49.030Z,9.60
2019-01-12T10:05:53.019Z,9.63
2019-01-12T10:06:57.509Z,9.65
2019-01-12T10:08:01.675Z,9.67
2019-01-12T10:09:08.102Z,9.67
2019-01-12T10:10:14.334Z,9.69
2019-01-12T10:11:18.481Z,9.72
2019-01-12T10:12:22.479Z,9.74
2019-01-12T10:13:26.639Z,9.75
2019-01-12T10:14:31.230Z,9.79
2019-01-12T10:15:35.213Z,9.79
2019-01-12T10:16:39.368Z,9.77
2019-01-12T10:17:43.379Z,9.76
2019-01-12T10:18:47.716Z,9.77
2019-01-12T10:19:51.878Z,9.80
2019-01-12T10:20:55.861Z,9.84
2019-01-12T10:22:00.018Z,9.87
2019-01-12T10:23:04.318Z,9.90
2019-01-12T10:24:08.225Z,9.89
2019-01-12T10:25:12.574Z,9.90
2019-01-12T10:26:16.763Z,9.91
2019-01-12T10:27:20.846Z,9.92
2019-01-12T10:28:24.700Z,9.92
2019-01-12T10:29:28.610Z,9.90
2019-01-12T10:30:32.876Z,9.92
2019-01-12T10:31:37.040Z,9.90
2019-01-12T10:32:41.026Z,9.89
2019-01-12T10:33:45.198Z,9.88
2019-01-12T10:34:49.111Z,9.89
2019-01-12T10:35:53.286Z,9.88
2019-01-12T10:36:57.442Z,9.89
2019-01-12T10:38:01.694Z,9.88
2019-01-12T10:39:08.279Z,9.87
2019-01-12T10:40:12.854Z,9.86
2019-01-12T10:41:17.347Z,9.86
2019-01-12T10:42:21.441Z,9.86
2019-01-12T10:43:25.445Z,9.86
2019-01-12T10:44:29.675Z,9.85
2019-01-12T10:45:33.676Z,9.83
2019-01-12T10:46:37.655Z,9.82
2019-01-12T10:47:43.258Z,9.81
2019-01-12T10:48:47.688Z,9.80
2019-01-12T10:49:51.676Z,9.83
2019-01-12T10:50:55.592Z,9.82
2019-01-12T10:51:59.833Z,9.83
2019-01-12T10:53:04.156Z,9.85
2019-01-12T10:54:08.082Z,9.85
2019-01-12T10:55:12.071Z,9.86
2019-01-12T10:56:16.301Z,9.88
2019-01-12T10:57:20.291Z,9.89
2019-01-12T10:58:24.385Z,9.91
2019-01-12T10:59:28.823Z,9.92
2019-01-12T11:00:35.111Z,9.92
2019-01-12T11:01:39.374Z,9.94
2019-01-12T11:02:43.619Z,9.94
2019-01-12T11:03:47.615Z,9.95
2019-01-12T11:04:51.528Z,9.94
2019-01-12T11:05:55.548Z,9.95
2019-01-12T11:06:59.642Z,9.95
2019-01-12T11:08:04.277Z,9.97
2019-01-12T11:09:09.255Z,10.00
2019-01-12T11:10:13.628Z,10.01
2019-01-12T11:11:17.879Z,10.02
2019-01-12T11:12:21.796Z,10.03
2019-01-12T11:13:25.814Z,10.03
2019-01-12T11:14:29.999Z,10.03
2019-01-12T11:15:33.919Z,10.04
2019-01-12T11:16:38.159Z,10.05
2019-01-12T11:17:42.160Z,10.06
2019-01-12T11:18:46.390Z,10.06
2019-01-12T11:19:50.644Z,10.07
2019-01-12T11:20:54.896Z,10.09
2019-01-12T11:21:59.134Z,10.10
2019-01-12T11:23:03.124Z,10.13
2019-01-12T11:24:07.355Z,10.14
2019-01-12T11:25:12.127Z,10.16
2019-01-12T11:26:16.116Z,10.17
2019-01-12T11:27:20.032Z,10.18
2019-01-12T11:28:24.027Z,10.17
2019-01-12T11:29:27.965Z,10.17
2019-01-12T11:30:31.881Z,10.15
2019-01-12T11:31:35.724Z,10.15
2019-01-12T11:32:39.716Z,10.12
2019-01-12T11:33:43.599Z,10.09
2019-01-12T11:34:47.544Z,10.09
2019-01-12T11:35:52.044Z,10.06
2019-01-12T11:36:56.045Z,10.05
2019-01-12T11:37:59.975Z,10.07
2019-01-12T11:39:05.991Z,10.05
2019-01-12T11:40:19.148Z,10.05
2019-01-12T11:41:23.564Z,10.06
2019-01-12T11:42:27.795Z,10.05
2019-01-12T11:43:31.969Z,10.04
2019-01-12T11:44:36.059Z,10.04
2019-01-12T11:45:40.066Z,9.99
2019-01-12T11:46:43.977Z,9.99
2019-01-12T11:47:48.215Z,9.94
2019-01-12T11:48:52.126Z,9.91
2019-01-12T11:49:56.045Z,9.89
2019-01-12T11:51:13.163Z,9.88
2019-01-12T11:52:17.004Z,9.87
2019-01-12T11:53:21.160Z,9.87
2019-01-12T11:54:25.178Z,9.88
2019-01-12T11:55:29.591Z,9.86
2019-01-12T11:56:33.744Z,9.81
2019-01-12T11:57:37.731Z,9.78
2019-01-12T11:58:41.881Z,9.77
2019-01-12T11:59:46.043Z,9.73
2019-01-12T12:00:50.060Z,9.72
2019-01-12T12:01:54.315Z,9.69
2019-01-12T12:02:58.486Z,9.69
2019-01-12T12:04:02.402Z,9.69
2019-01-12T12:05:07.308Z,9.69
2019-01-12T12:06:11.568Z,9.73
2019-01-12T12:07:15.825Z,9.73
2019-01-12T12:08:19.983Z,9.72
2019-01-12T12:09:23.897Z,9.74
2019-01-12T12:10:27.902Z,9.73
2019-01-12T12:11:32.386Z,9.74
2019-01-12T12:12:36.376Z,9.76
2019-01-12T12:13:40.786Z,9.78
2019-01-12T12:14:45.139Z,9.80
2019-01-12T12:15:49.246Z,9.81
2019-01-12T12:16:53.433Z,9.84
2019-01-12T12:17:57.275Z,9.88
2019-01-12T12:19:01.517Z,9.90
2019-01-12T12:20:08.959Z,9.92
2019-01-12T12:21:13.201Z,9.95
2019-01-12T12:22:17.190Z,9.95
2019-01-12T12:23:21.442Z,9.96
2019-01-12T12:24:25.370Z,9.96
2019-01-12T12:25:29.704Z,9.96
2019-01-12T12:26:33.703Z,9.97
2019-01-12T12:27:37.934Z,9.94
2019-01-12T12:28:41.890Z,9.94
2019-01-12T12:29:45.830Z,9.92
2019-01-12T12:30:49.814Z,9.92
2019-01-12T12:31:54.063Z,9.91
2019-01-12T12:32:58.057Z,9.90
2019-01-12T12:34:02.812Z,9.85
2019-01-12T12:35:07.338Z,9.84
2019-01-12T12:36:11.322Z,9.80
2019-01-12T12:37:15.308Z,9.77
2019-01-12T12:38:19.397Z,9.74
2019-01-12T12:39:23.379Z,9.73
2019-01-12T12:40:27.936Z,9.72
2019-01-12T12:41:31.863Z,9.72
2019-01-12T12:42:35.852Z,9.72
2019-01-12T12:43:40.025Z,9.73
2019-01-12T12:44:44.187Z,9.74
2019-01-12T12:45:48.353Z,9.76
2019-01-12T12:46:52.954Z,9.77
2019-01-12T12:47:56.922Z,9.80
2019-01-12T12:49:00.913Z,9.80
2019-01-12T12:50:07.127Z,9.82
2019-01-12T12:51:11.345Z,9.81
2019-01-12T12:52:15.605Z,9.83
2019-01-12T12:53:19.693Z,9.82
2019-01-12T12:54:23.680Z,9.81
2019-01-12T12:55:27.833Z,9.81
2019-01-12T12:56:32.248Z,9.80
2019-01-12T12:57:36.490Z,9.78
2019-01-12T12:58:40.441Z,9.78
2019-01-12T12:59:44.363Z,9.79
2019-01-12T13:00:48.615Z,9.78
2019-01-12T13:01:52.827Z,9.82
2019-01-12T13:02:56.966Z,9.78
2019-01-12T13:04:01.116Z,9.76
2019-01-12T13:05:07.230Z,9.74
2019-01-12T13:06:11.710Z,9.73
2019-01-12T13:07:15.702Z,9.73
2019-01-12T13:08:19.702Z,9.73
2019-01-12T13:09:23.929Z,9.74
2019-01-12T13:10:29.927Z,9.74
2019-01-12T13:11:34.246Z,9.76
2019-01-12T13:12:38.475Z,9.73
2019-01-12T13:13:43.046Z,9.73
2019-01-12T13:14:46.951Z,9.72
2019-01-12T13:15:50.940Z,9.72
2019-01-12T13:16:55.100Z,9.71
2019-01-12T13:17:59.338Z,9.71
2019-01-12T13:19:03.495Z,9.72
2019-01-12T13:20:09.727Z,9.72
2019-01-12T13:21:13.954Z,9.72
2019-01-12T13:22:17.863Z,9.73
2019-01-12T13:23:21.789Z,9.73
2019-01-12T13:24:25.706Z,9.76
2019-01-12T13:25:29.712Z,9.75
2019-01-12T13:26:33.615Z,9.76
2019-01-12T13:27:40.022Z,9.78
2019-01-12T13:28:43.575Z,9.77
2019-01-12T13:29:47.731Z,9.79
2019-01-12T13:30:51.650Z,9.77
2019-01-12T13:31:55.637Z,9.74
2019-01-12T13:33:00.153Z,9.72
2019-01-12T13:34:04.918Z,9.69
2019-01-12T13:35:09.012Z,9.68
2019-01-12T13:36:13.171Z,9.69
2019-01-12T13:37:17.135Z,9.67
2019-01-12T13:38:21.015Z,9.64
2019-01-12T13:39:31.855Z,9.62
2019-01-12T13:40:30.911Z,9.36
2019-01-12T13:41:35.144Z,9.63
2019-01-12T13:42:39.133Z,9.57
2019-01-12T13:43:43.302Z,9.56
2019-01-12T13:44:47.296Z,9.54
2019-01-12T13:45:51.458Z,9.56
2019-01-12T13:46:55.445Z,9.56
2019-01-12T13:47:59.358Z,9.55
2019-01-12T13:49:03.610Z,9.55
2019-01-12T13:50:09.676Z,9.54
2019-01-12T13:51:13.763Z,9.53
2019-01-12T13:52:18.247Z,9.57
2019-01-12T13:53:22.302Z,9.55
2019-01-12T13:54:26.318Z,9.54
2019-01-12T13:55:30.487Z,9.51
2019-01-12T13:56:34.649Z,9.52
2019-01-12T13:57:38.894Z,9.52
2019-01-12T13:58:42.901Z,9.54
2019-01-12T13:59:47.323Z,9.53
2019-01-12T14:00:51.319Z,9.57
2019-01-12T14:01:55.228Z,9.55
2019-01-12T14:02:59.212Z,9.55
2019-01-12T14:04:03.141Z,9.55
2019-01-12T14:05:08.341Z,9.54
2019-01-12T14:06:12.590Z,9.52
2019-01-12T14:07:16.815Z,9.52
2019-01-12T14:08:21.050Z,9.51
2019-01-12T14:09:24.979Z,9.50
2019-01-12T14:10:28.994Z,9.51
2019-01-12T14:11:32.837Z,9.49
2019-01-12T14:12:36.764Z,9.47
2019-01-12T14:13:42.417Z,9.49
2019-01-12T14:14:46.579Z,9.48
2019-01-12T14:15:50.497Z,9.49
2019-01-12T14:16:54.752Z,9.47
2019-01-12T14:17:59.083Z,9.45
2019-01-12T14:19:03.504Z,9.43
2019-01-12T14:20:11.406Z,9.43
2019-01-12T14:21:15.470Z,9.44
2019-01-12T14:22:19.449Z,9.43
2019-01-12T14:23:23.714Z,9.42
2019-01-12T14:24:27.799Z,9.42
2019-01-12T14:25:31.988Z,9.43
2019-01-12T14:26:35.908Z,9.43
2019-01-12T14:27:39.894Z,9.43
2019-01-12T14:28:43.987Z,9.43
2019-01-12T14:29:47.925Z,9.44
2019-01-12T14:30:52.083Z,9.44
2019-01-12T14:31:56.073Z,9.45
2019-01-12T14:33:00.306Z,9.44
2019-01-12T14:34:04.534Z,9.45
2019-01-12T14:35:10.319Z,9.44
2019-01-12T14:36:14.308Z,9.45
2019-01-12T14:37:18.480Z,9.43
2019-01-12T14:38:22.553Z,9.42
2019-01-12T14:39:26.649Z,9.41
2019-01-12T14:40:30.580Z,9.42
2019-01-12T14:41:34.503Z,9.42
2019-01-12T14:42:38.515Z,9.42
2019-01-12T14:43:42.572Z,9.41
2019-01-12T14:44:46.552Z,9.41
2019-01-12T14:45:50.795Z,9.41
2019-01-12T14:46:54.780Z,9.41
2019-01-12T14:47:58.757Z,9.41
2019-01-12T14:49:02.981Z,9.39
2019-01-12T14:50:08.307Z,9.39
2019-01-12T14:51:12.312Z,9.38
2019-01-12T14:52:16.325Z,9.38
2019-01-12T14:53:20.311Z,9.38
2019-01-12T14:54:24.227Z,9.38
2019-01-12T14:55:28.533Z,9.35
2019-01-12T14:56:32.705Z,9.33
2019-01-12T14:57:36.940Z,9.33
2019-01-12T14:58:41.183Z,9.33
2019-01-12T14:59:45.421Z,9.33
2019-01-12T15:00:49.719Z,9.31
2019-01-12T15:01:53.954Z,9.30
2019-01-12T15:02:58.223Z,9.28
2019-01-12T15:04:02.074Z,9.27
2019-01-12T15:05:07.292Z,9.29
2019-01-12T15:06:11.539Z,9.28
2019-01-12T15:07:15.765Z,9.25
2019-01-12T15:08:19.901Z,9.20
2019-01-12T15:09:24.083Z,9.21
2019-01-12T15:10:28.261Z,9.20
2019-01-12T15:11:32.662Z,9.19